createdAt,value
2023-05-12T00:01:59.591Z,10.00
2023-05-12T00:04:33.901Z,9.90
2023-05-12T00:07:08.898Z,10.00
2023-05-12T00:09:42.961Z,10.00
2023-05-12T00:12:18.485Z,10.00
2023-05-12T00:14:52.560Z,9.90
2023-05-12T00:17:27.907Z,9.90
2023-05-12T00:20:02.580Z,9.90
2023-05-12T00:22:36.907Z,9.90
2023-05-12T00:25:11.222Z,9.90
2023-05-12T00:27:46.588Z,9.90
2023-05-12T00:30:21.320Z,9.90
2023-05-12T00:32:55.752Z,9.90
2023-05-12T00:35:30.021Z,9.90
2023-05-12T00:38:04.166Z,9.90
2023-05-12T00:40:38.254Z,9.90
2023-05-12T00:43:13.721Z,10.00
2023-05-12T00:45:48.292Z,10.00
2023-05-12T00:48:22.627Z,10.00
2023-05-12T00:50:57.736Z,9.90
2023-05-12T00:53:45.008Z,9.90
2023-05-12T00:56:23.006Z,9.90
2023-05-12T00:58:58.512Z,10.00
2023-05-12T01:01:32.760Z,9.90
2023-05-12T01:04:07.150Z,9.90
2023-05-12T01:06:57.998Z,9.90
2023-05-12T01:09:32.187Z,9.90
2023-05-12T01:12:07.299Z,9.90
2023-05-12T01:14:43.199Z,10.00
2023-05-12T01:17:21.257Z,10.00
2023-05-12T01:19:58.562Z,10.00
2023-05-12T01:22:34.106Z,10.00
2023-05-12T01:25:12.531Z,10.00
2023-05-12T01:27:48.585Z,9.90
2023-05-12T01:30:24.589Z,9.90
2023-05-12T01:32:59.390Z,9.90
2023-05-12T01:35:33.607Z,9.90
2023-05-12T01:38:07.738Z,9.90
2023-05-12T01:40:41.949Z,10.00
2023-05-12T01:43:17.457Z,9.90
2023-05-12T01:45:51.690Z,10.00
2023-05-12T01:48:25.717Z,10.00
2023-05-12T01:51:01.157Z,10.10
2023-05-12T01:53:35.286Z,10.20
2023-05-12T01:56:09.393Z,10.30
2023-05-12T01:58:44.890Z,10.30
2023-05-12T02:01:18.983Z,10.20
2023-05-12T02:03:53.169Z,10.20
2023-05-12T02:06:28.589Z,10.20
2023-05-12T02:09:02.722Z,10.10
2023-05-12T02:11:37.487Z,10.10
2023-05-12T02:14:12.965Z,10.10
2023-05-12T02:16:47.398Z,10.00
2023-05-12T02:19:21.610Z,9.90
2023-05-12T02:21:55.677Z,9.90
2023-05-12T02:24:29.755Z,9.80
2023-05-12T02:27:03.888Z,9.80
2023-05-12T02:29:39.764Z,9.80
2023-05-12T02:32:13.894Z,9.70
2023-05-12T02:34:48.005Z,9.70
2023-05-12T02:37:22.176Z,9.80
2023-05-12T02:39:56.417Z,9.80
2023-05-12T02:42:35.386Z,9.90
2023-05-12T02:45:12.664Z,9.90
2023-05-12T02:47:46.780Z,9.90
2023-05-12T02:50:21.816Z,9.90
2023-05-12T02:52:56.198Z,10.00
2023-05-12T02:55:30.862Z,10.10
2023-05-12T02:58:04.942Z,10.10
2023-05-12T03:00:40.356Z,10.10
2023-05-12T03:03:14.634Z,10.10
2023-05-12T03:05:49.064Z,10.10
2023-05-12T03:08:23.683Z,10.10
2023-05-12T03:10:57.872Z,10.10
2023-05-12T03:13:31.953Z,10.10
2023-05-12T03:16:08.182Z,10.00
2023-05-12T03:18:42.334Z,10.00
2023-05-12T03:21:16.652Z,10.00
2023-05-12T03:23:50.733Z,9.90
2023-05-12T03:26:24.963Z,9.90
2023-05-12T03:28:59.047Z,9.90
2023-05-12T03:31:34.637Z,9.90
2023-05-12T03:34:08.713Z,9.90
2023-05-12T03:36:43.353Z,9.90
2023-05-12T03:39:17.334Z,9.90
2023-05-12T03:41:51.547Z,9.90
2023-05-12T03:44:25.880Z,9.90
2023-05-12T03:47:01.731Z,10.00
2023-05-12T03:49:35.832Z,10.00
2023-05-12T03:52:10.044Z,10.00
2023-05-12T03:54:44.084Z,10.00
2023-05-12T03:57:18.357Z,10.00
2023-05-12T03:59:52.554Z,10.10
2023-05-12T04:02:28.204Z,10.10
2023-05-12T04:05:02.372Z,10.10
2023-05-12T04:07:37.017Z,10.10
2023-05-12T04:10:11.634Z,10.10
2023-05-12T04:12:45.725Z,10.10
2023-05-12T04:15:21.169Z,10.10
2023-05-12T04:17:56.970Z,10.10
2023-05-12T04:20:31.072Z,10.00
2023-05-12T04:23:05.187Z,10.00
2023-05-12T04:25:41.107Z,10.10
2023-05-12T04:28:16.144Z,10.10
2023-05-12T04:30:50.504Z,10.20
2023-05-12T04:33:26.037Z,10.30
2023-05-12T04:36:01.494Z,10.30
2023-05-12T04:38:35.653Z,10.30
2023-05-12T04:41:09.781Z,10.20
2023-05-12T04:46:21.084Z,10.20
2023-05-12T04:48:56.601Z,10.20
2023-05-12T04:51:31.967Z,10.20
2023-05-12T04:54:06.202Z,10.30
2023-05-12T04:56:40.467Z,10.30
2023-05-12T04:59:15.883Z,10.30
2023-05-12T05:01:50.160Z,10.30
2023-05-12T05:04:25.871Z,10.40
2023-05-12T05:06:59.976Z,10.40
2023-05-12T05:09:36.196Z,10.50
2023-05-12T05:12:10.985Z,10.60
2023-05-12T05:14:45.087Z,10.60
2023-05-12T05:17:19.167Z,10.60
2023-05-12T05:19:59.036Z,10.60
2023-05-12T05:22:33.799Z,10.70
2023-05-12T05:25:10.101Z,10.70
2023-05-12T05:27:44.286Z,10.80
2023-05-12T05:30:18.355Z,10.70
2023-05-12T05:32:52.475Z,10.70
2023-05-12T05:35:27.942Z,10.80
2023-05-12T05:38:02.210Z,10.90
2023-05-12T05:40:51.487Z,11.00
2023-05-12T05:43:26.743Z,11.10
2023-05-12T05:46:00.855Z,11.00
2023-05-12T05:48:36.455Z,11.10
2023-05-12T05:51:12.500Z,11.20
2023-05-12T05:53:46.735Z,11.20
2023-05-12T05:56:20.813Z,11.30
2023-05-12T05:58:55.010Z,11.40
2023-05-12T06:01:29.161Z,11.40
2023-05-12T06:04:03.636Z,11.40
2023-05-12T06:06:39.382Z,11.50
2023-05-12T06:09:15.445Z,11.60
2023-05-12T06:11:49.656Z,11.70
2023-05-12T06:14:23.936Z,11.70
2023-05-12T06:16:58.171Z,11.70
2023-05-12T06:19:32.317Z,11.80
2023-05-12T06:22:07.924Z,11.80
2023-05-12T06:24:42.254Z,11.80
2023-05-12T06:27:17.125Z,11.90
2023-05-12T06:29:52.609Z,12.00
2023-05-12T06:32:26.833Z,12.20
2023-05-12T06:35:01.107Z,12.40
2023-05-12T06:37:36.692Z,12.40
2023-05-12T06:40:11.597Z,12.50
2023-05-12T06:42:45.873Z,12.50
2023-05-12T06:45:20.972Z,12.60
2023-05-12T06:47:55.564Z,12.70
2023-05-12T06:50:29.689Z,12.80
2023-05-12T06:53:06.358Z,12.80
2023-05-12T06:55:40.503Z,12.90
2023-05-12T06:58:14.588Z,12.70
2023-05-12T07:00:49.046Z,12.60
2023-05-12T07:03:23.282Z,12.60
2023-05-12T07:05:57.469Z,12.60
2023-05-12T07:08:33.047Z,12.70
2023-05-12T07:11:07.104Z,12.80
2023-05-12T07:13:41.244Z,13.00
2023-05-12T07:16:15.793Z,13.00
2023-05-12T07:18:50.041Z,13.10
2023-05-12T07:21:24.468Z,13.20
2023-05-12T07:24:00.345Z,13.30
2023-05-12T07:26:34.498Z,13.50
2023-05-12T07:29:13.434Z,13.80
2023-05-12T07:31:48.105Z,13.90
2023-05-12T07:34:22.253Z,13.90
2023-05-12T07:36:56.566Z,14.10
2023-05-12T07:39:32.478Z,14.30
2023-05-12T07:42:07.424Z,14.40
2023-05-12T07:44:41.465Z,14.70
2023-05-12T07:47:16.072Z,15.10
2023-05-12T07:49:50.203Z,15.20
2023-05-12T07:52:24.302Z,15.20
2023-05-12T07:54:59.822Z,15.30
2023-05-12T07:57:33.950Z,15.30
2023-05-12T08:00:11.133Z,15.30
2023-05-12T08:02:45.769Z,15.60
2023-05-12T08:05:20.221Z,15.80
2023-05-12T08:07:54.487Z,15.90
2023-05-12T08:10:32.578Z,15.80
2023-05-12T08:13:06.737Z,15.50
2023-05-12T08:15:40.915Z,15.60
2023-05-12T08:18:15.209Z,15.70
2023-05-12T08:20:50.845Z,15.80
2023-05-12T08:23:24.944Z,15.90
2023-05-12T08:26:00.438Z,15.80
2023-05-12T08:28:34.543Z,15.70
2023-05-12T08:31:08.816Z,15.70
2023-05-12T08:33:43.157Z,15.90
2023-05-12T08:36:17.386Z,16.20
2023-05-12T08:38:51.718Z,16.50
2023-05-12T08:41:43.650Z,16.50
2023-05-12T08:44:20.358Z,16.60
2023-05-12T08:46:58.316Z,16.60
2023-05-12T08:49:34.555Z,16.40
2023-05-12T08:52:10.489Z,16.60
2023-05-12T08:54:55.456Z,16.70
2023-05-12T08:57:32.664Z,16.90
2023-05-12T09:00:10.151Z,16.80
2023-05-12T09:02:52.870Z,16.70
2023-05-12T09:05:31.028Z,16.70
2023-05-12T09:08:06.369Z,16.80
2023-05-12T09:10:41.104Z,16.90
2023-05-12T09:13:21.934Z,16.90
2023-05-12T09:15:59.007Z,16.80
2023-05-12T09:18:48.414Z,17.00
2023-05-12T09:21:22.762Z,17.00
2023-05-12T09:23:59.476Z,17.00
2023-05-12T09:26:47.827Z,17.40
2023-05-12T09:29:31.243Z,17.50
2023-05-12T09:32:06.649Z,17.40
2023-05-12T09:34:41.540Z,17.60
2023-05-12T09:37:15.939Z,17.70
2023-05-12T09:40:01.470Z,17.70
2023-05-12T09:42:37.055Z,17.90
2023-05-12T09:45:15.484Z,17.90
2023-05-12T09:47:49.881Z,17.90
2023-05-12T09:50:24.216Z,17.90
2023-05-12T09:53:01.275Z,17.90
2023-05-12T09:55:35.513Z,17.80
2023-05-12T09:58:11.563Z,17.50
2023-05-12T10:03:27.567Z,17.30
2023-05-12T10:06:07.521Z,17.40
2023-05-12T10:08:45.661Z,17.50
2023-05-12T10:11:21.424Z,17.50
2023-05-12T10:13:57.273Z,17.50
2023-05-12T10:16:33.669Z,17.80
2023-05-12T10:19:08.529Z,18.20
2023-05-12T10:21:46.091Z,18.10
2023-05-12T10:24:21.885Z,17.70
2023-05-12T10:26:56.704Z,17.30
2023-05-12T10:29:33.100Z,17.00
2023-05-12T10:32:08.668Z,16.80
2023-05-12T10:34:43.464Z,16.60
2023-05-12T10:37:17.899Z,16.40
2023-05-12T10:39:53.829Z,16.60
2023-05-12T10:42:27.878Z,16.60
2023-05-12T10:45:04.612Z,16.70
2023-05-12T10:47:40.479Z,16.70
2023-05-12T10:50:15.507Z,16.60
2023-05-12T10:52:55.251Z,16.50
2023-05-12T10:55:35.888Z,16.20
2023-05-12T10:58:14.566Z,16.20
2023-05-12T11:00:54.838Z,16.00
2023-05-12T11:03:32.200Z,15.90
2023-05-12T11:06:08.992Z,15.90
2023-05-12T11:08:46.020Z,15.90
2023-05-12T11:11:22.373Z,15.90
2023-05-12T11:13:57.221Z,16.00
2023-05-12T11:16:31.424Z,16.00
2023-05-12T11:19:07.371Z,16.10
2023-05-12T11:21:41.964Z,16.10
2023-05-12T11:24:16.709Z,16.00
2023-05-12T11:26:52.271Z,15.80
2023-05-12T11:29:26.517Z,15.90
2023-05-12T11:32:01.028Z,16.00
2023-05-12T11:34:36.586Z,16.10
2023-05-12T11:37:11.067Z,16.10
2023-05-12T11:39:45.174Z,16.00
2023-05-12T11:42:22.898Z,15.70
2023-05-12T11:44:58.524Z,15.60
2023-05-12T11:47:32.764Z,15.50
2023-05-12T11:50:10.296Z,15.50
2023-05-12T11:52:44.584Z,15.60
2023-05-12T11:55:24.368Z,15.80
2023-05-12T11:58:03.101Z,16.20
2023-05-12T12:00:37.531Z,16.40
2023-05-12T12:03:14.442Z,16.40
2023-05-12T12:06:01.840Z,16.40
2023-05-12T12:08:38.774Z,16.50
2023-05-12T12:11:12.888Z,16.20
2023-05-12T12:13:56.320Z,16.20
2023-05-12T12:16:32.592Z,16.10
2023-05-12T12:19:07.557Z,15.90
2023-05-12T12:21:43.074Z,15.90
2023-05-12T12:24:17.527Z,16.10
2023-05-12T12:26:55.038Z,16.10
2023-05-12T12:29:29.187Z,16.20
2023-05-12T12:32:03.309Z,16.30
2023-05-12T12:34:37.690Z,16.40
2023-05-12T12:37:13.338Z,16.20
2023-05-12T12:39:48.080Z,16.00
2023-05-12T12:42:22.296Z,15.90
2023-05-12T12:44:56.798Z,15.80
2023-05-12T12:47:30.973Z,15.70
2023-05-12T12:50:05.780Z,15.70
2023-05-12T12:52:41.265Z,15.60
2023-05-12T12:55:15.462Z,15.50
2023-05-12T12:57:49.586Z,15.50
2023-05-12T13:00:24.563Z,15.50
2023-05-12T13:03:00.293Z,15.50
2023-05-12T13:05:34.811Z,15.60
2023-05-12T13:08:10.330Z,15.70
2023-05-12T13:10:44.620Z,15.90
2023-05-12T13:13:18.714Z,16.00
2023-05-12T13:15:54.218Z,16.10
2023-05-12T13:18:28.396Z,16.40
2023-05-12T13:21:04.438Z,16.70
2023-05-12T13:23:39.935Z,16.90
2023-05-12T13:26:14.691Z,17.10
2023-05-12T13:31:23.419Z,17.20
2023-05-12T13:33:57.487Z,17.20
2023-05-12T13:36:33.750Z,17.20
2023-05-12T13:39:10.302Z,17.50
2023-05-12T13:41:44.412Z,17.70
2023-05-12T13:44:19.452Z,17.90
2023-05-12T13:46:53.642Z,18.00
2023-05-12T13:49:27.826Z,18.10
2023-05-12T13:52:02.070Z,18.00
2023-05-12T13:54:37.560Z,18.00
2023-05-12T13:57:11.807Z,17.80
2023-05-12T13:59:45.976Z,17.90
2023-05-12T14:02:20.124Z,17.90
2023-05-12T14:04:54.356Z,17.70
2023-05-12T14:07:29.279Z,17.60
2023-05-12T14:10:04.975Z,17.50
2023-05-12T14:12:39.074Z,17.40
2023-05-12T14:15:26.567Z,17.30
2023-05-12T14:18:07.286Z,17.20
2023-05-12T14:20:41.660Z,17.00
2023-05-12T14:23:15.727Z,17.20
2023-05-12T14:25:51.433Z,17.20
2023-05-12T14:28:25.632Z,17.20
2023-05-12T14:30:59.898Z,17.30
2023-05-12T14:33:34.046Z,17.20
2023-05-12T14:36:09.634Z,17.10
2023-05-12T14:38:43.764Z,17.00
2023-05-12T14:41:19.233Z,17.10
2023-05-12T14:43:53.325Z,17.30
2023-05-12T14:46:27.562Z,17.40
2023-05-12T14:49:01.714Z,17.40
2023-05-12T14:51:35.885Z,17.50
2023-05-12T14:54:18.399Z,17.50
2023-05-12T14:57:00.069Z,17.50
2023-05-12T14:59:34.228Z,17.50
2023-05-12T15:02:09.019Z,17.80
2023-05-12T15:04:43.758Z,18.00
2023-05-12T15:07:17.996Z,18.20
2023-05-12T15:09:52.113Z,18.40
2023-05-12T15:12:27.704Z,18.60
2023-05-12T15:15:04.351Z,18.80
2023-05-12T15:17:38.710Z,18.50
2023-05-12T15:20:13.535Z,18.30
2023-05-12T15:22:49.010Z,18.30
2023-05-12T15:25:23.164Z,18.20
2023-05-12T15:27:58.623Z,18.20
2023-05-12T15:30:32.757Z,18.20
2023-05-12T15:33:07.026Z,18.00
2023-05-12T15:35:41.732Z,17.70
2023-05-12T15:38:15.852Z,17.40
2023-05-12T15:40:50.085Z,17.50
2023-05-12T15:43:25.651Z,17.50
2023-05-12T15:45:59.798Z,17.50
2023-05-12T15:48:34.084Z,17.30
2023-05-12T15:51:08.470Z,17.20
2023-05-12T15:53:42.601Z,17.10
2023-05-12T15:56:16.651Z,17.00
2023-05-12T15:58:52.041Z,17.00
2023-05-12T16:01:26.472Z,17.10
2023-05-12T16:04:00.906Z,17.30
2023-05-12T16:06:35.923Z,17.20
2023-05-12T16:09:10.142Z,17.20
2023-05-12T16:11:44.822Z,17.10
2023-05-12T16:14:21.890Z,17.10
2023-05-12T16:16:56.154Z,16.90
2023-05-12T16:19:30.713Z,16.90
2023-05-12T16:22:05.204Z,16.90
2023-05-12T16:24:39.213Z,16.70
2023-05-12T16:27:13.353Z,16.60
2023-05-12T16:29:50.386Z,16.60
2023-05-12T16:32:24.549Z,16.80
2023-05-12T16:34:59.606Z,16.80
2023-05-12T16:37:33.879Z,16.90
2023-05-12T16:40:10.416Z,16.60
2023-05-12T16:42:44.538Z,16.60
2023-05-12T16:45:21.336Z,16.50
2023-05-12T16:47:55.614Z,16.40
2023-05-12T16:50:29.869Z,16.30
2023-05-12T16:53:04.009Z,16.20
2023-05-12T16:55:38.149Z,16.20
2023-05-12T16:58:12.403Z,16.00
2023-05-12T17:00:47.901Z,16.00
2023-05-12T17:03:22.891Z,15.90
2023-05-12T17:05:57.062Z,15.70
2023-05-12T17:08:31.191Z,15.60
2023-05-12T17:11:06.566Z,15.50
2023-05-12T17:13:40.776Z,15.20
2023-05-12T17:16:16.390Z,15.20
2023-05-12T17:21:28.231Z,14.90
2023-05-12T17:24:02.775Z,14.70
2023-05-12T17:26:37.741Z,14.60
2023-05-12T17:29:11.980Z,14.60
2023-05-12T17:31:47.459Z,14.50
2023-05-12T17:34:21.677Z,14.60
2023-05-12T17:36:55.961Z,14.40
2023-05-12T17:39:30.124Z,14.30
2023-05-12T17:42:04.623Z,14.30
2023-05-12T17:44:38.911Z,14.30
2023-05-12T17:47:14.421Z,14.30
2023-05-12T17:49:48.907Z,14.10
2023-05-12T17:52:23.300Z,14.00
2023-05-12T17:54:57.863Z,14.00
2023-05-12T17:57:32.100Z,13.90
2023-05-12T18:00:10.323Z,13.90
2023-05-12T18:02:46.555Z,14.00
2023-05-12T18:05:21.362Z,13.90
2023-05-12T18:07:56.236Z,14.00
2023-05-12T18:10:30.550Z,13.90
2023-05-12T18:13:05.215Z,14.00
2023-05-12T18:15:39.396Z,14.00
2023-05-12T18:18:14.996Z,13.90
2023-05-12T18:20:49.144Z,13.90
2023-05-12T18:23:23.308Z,13.80
2023-05-12T18:25:57.480Z,13.70
2023-05-12T18:28:31.588Z,13.70
2023-05-12T18:31:15.111Z,13.70
2023-05-12T18:33:51.748Z,13.70
2023-05-12T18:36:26.383Z,13.70
2023-05-12T18:39:00.490Z,13.60
2023-05-12T18:41:34.643Z,13.50
2023-05-12T18:44:08.921Z,13.40
2023-05-12T18:46:43.363Z,13.40
2023-05-12T18:49:18.882Z,13.40
2023-05-12T18:51:53.015Z,13.40
2023-05-12T18:54:27.305Z,13.40
2023-05-12T18:57:01.515Z,13.40
2023-05-12T18:59:35.777Z,13.30
2023-05-12T19:02:10.454Z,13.30
2023-05-12T19:04:46.497Z,13.20
2023-05-12T19:07:20.751Z,13.30
2023-05-12T19:09:54.846Z,13.20
2023-05-12T19:12:29.943Z,13.20
2023-05-12T19:15:04.352Z,13.10
2023-05-12T19:17:39.541Z,13.10
2023-05-12T19:20:15.179Z,13.20
2023-05-12T19:22:50.460Z,13.00
2023-05-12T19:25:24.741Z,13.00
2023-05-12T19:27:59.162Z,13.00
2023-05-12T19:30:33.316Z,13.00
2023-05-12T19:33:07.709Z,12.90
2023-05-12T19:35:43.422Z,12.90
2023-05-12T19:38:18.564Z,12.90
2023-05-12T19:40:52.756Z,12.80
2023-05-12T19:43:26.845Z,12.90
2023-05-12T19:46:01.044Z,12.90
2023-05-12T19:48:35.133Z,12.90
2023-05-12T19:51:10.754Z,12.90
2023-05-12T19:53:44.860Z,12.90
2023-05-12T19:56:19.774Z,12.90
2023-05-12T19:58:53.873Z,12.80
2023-05-12T20:01:28.294Z,12.80
2023-05-12T20:04:02.750Z,12.80
2023-05-12T20:06:38.372Z,12.90
2023-05-12T20:09:12.586Z,12.80
2023-05-12T20:11:46.660Z,12.80
2023-05-12T20:14:21.315Z,12.70
2023-05-12T20:16:56.953Z,12.60
2023-05-12T20:19:31.969Z,12.60
2023-05-12T20:22:07.606Z,12.50
2023-05-12T20:24:41.752Z,12.50
2023-05-12T20:27:15.896Z,12.50
2023-05-12T20:29:50.059Z,12.40
2023-05-12T20:32:24.243Z,12.50
2023-05-12T20:34:58.748Z,12.40
2023-05-12T20:37:34.526Z,12.30
2023-05-12T20:40:10.750Z,12.30
2023-05-12T20:42:52.986Z,12.30
2023-05-12T20:45:27.081Z,12.30
2023-05-12T20:48:01.321Z,12.30
2023-05-12T20:50:35.450Z,12.40
2023-05-12T20:53:10.939Z,12.30
2023-05-12T20:55:45.445Z,12.30
2023-05-12T20:58:19.522Z,12.30
2023-05-12T21:00:53.707Z,12.20
2023-05-12T21:03:28.223Z,12.30
2023-05-12T21:06:02.849Z,12.30
2023-05-12T21:08:38.298Z,12.30
2023-05-12T21:11:17.037Z,12.30
2023-05-12T21:13:51.139Z,12.20
2023-05-12T21:16:25.951Z,12.20
2023-05-12T21:19:00.071Z,12.10
2023-05-12T21:21:34.148Z,12.10
2023-05-12T21:24:09.663Z,12.10
2023-05-12T21:26:43.741Z,12.00
2023-05-12T21:29:17.976Z,12.10
2023-05-12T21:31:52.268Z,12.00
2023-05-12T21:34:27.716Z,12.00
2023-05-12T21:37:01.845Z,11.90
2023-05-12T21:39:37.236Z,11.90
2023-05-12T21:42:11.366Z,11.80
2023-05-12T21:44:45.412Z,11.90
2023-05-12T21:47:19.714Z,11.90
2023-05-12T21:49:55.584Z,11.80
2023-05-12T21:52:29.650Z,11.70
2023-05-12T21:55:05.688Z,11.80
2023-05-12T21:57:39.802Z,11.80
2023-05-12T22:00:15.168Z,11.80
2023-05-12T22:02:49.501Z,11.80
2023-05-12T22:05:23.665Z,11.70
2023-05-12T22:07:57.751Z,11.70
2023-05-12T22:10:33.270Z,11.60
2023-05-12T22:13:07.424Z,11.60
2023-05-12T22:15:41.989Z,11.60
2023-05-12T22:18:16.246Z,11.50
2023-05-12T22:20:50.403Z,11.40
2023-05-12T22:23:24.514Z,11.40
2023-05-12T22:25:59.992Z,11.40
2023-05-12T22:28:34.058Z,11.30
2023-05-12T22:31:08.185Z,11.30
2023-05-12T22:33:42.307Z,11.20
2023-05-12T22:36:16.691Z,11.10
2023-05-12T22:38:50.773Z,11.20
2023-05-12T22:41:26.251Z,11.10
2023-05-12T22:44:00.393Z,11.10
2023-05-12T22:46:34.497Z,11.10
2023-05-12T22:49:08.622Z,10.90
2023-05-12T22:51:42.683Z,10.90
2023-05-12T22:54:16.721Z,10.70
2023-05-12T22:56:52.293Z,10.70
2023-05-12T22:59:26.465Z,10.60
2023-05-12T23:02:00.543Z,10.60
2023-05-12T23:04:34.673Z,10.70
2023-05-12T23:07:09.903Z,10.60
2023-05-12T23:09:44.007Z,10.60
2023-05-12T23:12:19.390Z,10.60
2023-05-12T23:14:53.550Z,10.60
2023-05-12T23:17:27.638Z,10.60
2023-05-12T23:20:01.767Z,10.60
2023-05-12T23:22:35.854Z,10.70
2023-05-12T23:25:10.742Z,10.70
2023-05-12T23:27:46.232Z,10.70
2023-05-12T23:30:20.507Z,10.60
2023-05-12T23:32:55.064Z,10.60
2023-05-12T23:35:29.313Z,10.50
2023-05-12T23:38:03.423Z,10.40
2023-05-12T23:40:39.136Z,10.40
2023-05-12T23:43:14.654Z,10.40
2023-05-12T23:45:48.785Z,10.40
2023-05-12T23:48:22.945Z,10.40
2023-05-12T23:50:57.004Z,10.40
2023-05-12T23:53:31.275Z,10.50
2023-05-12T23:56:05.947Z,10.50
2023-05-12T23:58:41.848Z,10.50
